Time;durP1;ratioP1;P1;durP2;ratioP2;P2;SDS_P1;SDS_P2;PMS_P1;PMS_P2;Temp;Humidity;BMP_temperature;BMP_pressure;BME280_temperature;BME280_humidity;BME280_pressure;Samples;Min_cycle;Max_cycle;Signal;HPM_P1;HPM_P2
2021/12/03 00:00:21;;;;;;;5.65;1.60;;;;;;;0.96;76.77;99613.08;1784854;79;20921;-72
2021/12/03 00:02:48;;;;;;;3.08;1.70;;;;;;;0.97;76.64;99616.48;1770643;80;21026;-72
2021/12/03 00:05:15;;;;;;;2.95;1.62;;;;;;;0.96;76.80;99621.98;1772643;79;28273;-72
2021/12/03 00:07:42;;;;;;;6.17;2.22;;;;;;;0.97;76.86;99631.75;1766338;80;20874;-72
2021/12/03 00:10:12;;;;;;;2.85;1.32;;;;;;;0.99;76.90;99635.16;1797402;78;20886;-72
2021/12/03 00:12:39;;;;;;;2.45;1.40;;;;;;;0.98;76.83;99638.13;1783711;80;20937;-72
2021/12/03 00:15:08;;;;;;;2.00;1.50;;;;;;;0.98;76.81;99642.36;1779041;80;20902;-72
2021/12/03 00:17:35;;;;;;;1.65;1.10;;;;;;;0.98;76.82;99654.67;1804216;78;20905;-72
2021/12/03 00:20:03;;;;;;;1.75;1.10;;;;;;;0.97;76.84;99651.69;1796994;79;20886;-72
2021/12/03 00:22:29;;;;;;;4.30;1.20;;;;;;;0.97;76.91;99651.69;1781691;80;20945;-72
2021/12/03 00:24:55;;;;;;;2.22;1.15;;;;;;;0.96;76.82;99670.34;1793720;78;20933;-72
2021/12/03 00:27:23;;;;;;;1.17;0.90;;;;;;;0.97;76.85;99672.47;1801629;77;20886;-72
2021/12/03 00:29:49;;;;;;;1.20;0.88;;;;;;;0.93;76.82;99677.11;1785183;78;20854;-72
2021/12/03 00:32:15;;;;;;;1.30;0.90;;;;;;;0.92;76.88;99680.48;1781540;80;20905;-72
2021/12/03 00:34:42;;;;;;;3.92;1.10;;;;;;;0.91;76.95;99682.19;1792315;78;20903;-72
2021/12/03 00:37:08;;;;;;;1.90;1.12;;;;;;;0.91;76.91;99689.82;1785415;80;20909;-72
2021/12/03 00:39:35;;;;;;;2.35;0.90;;;;;;;0.90;76.94;99689.39;1801233;78;21791;-71
2021/12/03 00:42:03;;;;;;;2.05;1.15;;;;;;;0.91;76.97;99683.45;1827579;77;20871;-72
2021/12/03 00:44:30;;;;;;;2.35;1.25;;;;;;;0.91;76.92;99694.91;1771224;79;20909;-72
2021/12/03 00:46:59;;;;;;;4.53;1.60;;;;;;;0.90;76.93;99701.26;1814160;77;20894;-72
2021/12/03 00:49:26;;;;;;;0.98;0.78;;;;;;;0.91;76.96;99699.15;1785707;79;20897;-72
2021/12/03 00:51:53;;;;;;;2.83;0.88;;;;;;;0.89;76.88;99707.19;1811561;79;20874;-72
2021/12/03 00:54:20;;;;;;;2.40;0.80;;;;;;;0.86;76.94;99700.38;1776227;78;21477;-72
2021/12/03 00:56:46;;;;;;;;;;;;;;;0.87;76.98;99713.95;1799322;79;20909;-72
2021/12/03 00:59:12;;;;;;;1.90;0.62;;;;;;;0.85;77.09;99712.67;1799595;78;20149;-72
2021/12/03 01:01:39;;;;;;;3.20;1.15;;;;;;;0.86;77.08;99712.25;1815759;78;20893;-72
2021/12/03 01:04:06;;;;;;;1.10;0.70;;;;;;;0.86;77.09;99715.65;1790836;79;20936;-72
2021/12/03 01:06:32;;;;;;;4.08;0.78;;;;;;;0.88;77.15;99718.20;1812426;77;20870;-71
2021/12/03 01:08:58;;;;;;;4.80;0.98;;;;;;;0.90;77.06;99710.17;1796946;79;20916;-71
2021/12/03 01:11:24;;;;;;;4.20;1.00;;;;;;;0.89;77.09;99716.95;1797002;78;20940;-71
2021/12/03 01:13:53;;;;;;;1.98;0.82;;;;;;;0.88;77.09;99722.88;1787437;79;20885;-71
2021/12/03 01:16:20;;;;;;;2.05;0.78;;;;;;;0.88;77.08;99718.20;1804042;78;20858;-71
2021/12/03 01:18:46;;;;;;;2.67;1.22;;;;;;;0.87;77.13;99722.44;1771304;79;20869;-71
2021/12/03 01:21:14;;;;;;;1.30;0.80;;;;;;;0.89;77.21;99715.67;1796993;79;20919;-71
2021/12/03 01:23:41;;;;;;;4.22;0.78;;;;;;;0.88;77.16;99713.12;1830925;77;20877;-71
2021/12/03 01:26:07;;;;;;;1.82;0.98;;;;;;;0.87;77.15;99720.31;1768192;79;26567;-71
2021/12/03 01:28:33;;;;;;;;;;;;;;;0.88;77.17;99724.56;1787437;79;20878;-71
2021/12/03 01:31:00;;;;;;;;;;;;;;;0.86;77.25;99716.92;1801820;79;20097;-71
2021/12/03 01:33:27;;;;;;;2.40;0.78;;;;;;;0.87;77.23;99726.68;1813551;77;20089;-71
2021/12/03 01:35:53;;;;;;;3.25;0.80;;;;;;;0.86;77.21;99726.25;1811587;77;20933;-71
2021/12/03 01:38:19;;;;;;;2.62;1.30;;;;;;;0.86;77.23;99733.46;1815264;77;20866;-71
2021/12/03 01:40:45;;;;;;;1.17;0.95;;;;;;;0.86;77.24;99732.61;1759163;80;21038;-71
2021/12/03 01:43:19;;;;;;;3.60;1.02;;;;;;;0.86;77.19;99728.80;1795120;78;20921;-72
2021/12/03 01:45:42;;;;;;;2.75;0.70;;;;;;;0.82;77.18;99729.60;1799226;78;20905;-71
2021/12/03 01:48:09;;;;;;;2.87;1.05;;;;;;;0.81;77.16;99732.98;1783590;80;20898;-71
2021/12/03 01:50:38;;;;;;;;;;;;;;;0.78;77.18;99735.08;1796209;79;20962;-71
2021/12/03 01:53:21;;;;;;;3.30;0.90;;;;;;;0.77;77.28;99738.89;1764840;80;20232;-71
2021/12/03 01:55:50;;;;;;;3.30;0.95;;;;;;;0.76;77.25;99733.36;1768286;80;20922;-71
2021/12/03 01:58:16;;;;;;;3.02;1.02;;;;;;;0.75;77.25;99740.14;1801812;79;20878;-71
2021/12/03 02:00:53;;;;;;;3.00;0.70;;;;;;;0.75;77.31;99747.78;1789234;79;20882;-71
2021/12/03 02:03:27;;;;;;;4.47;1.00;;;;;;;0.73;77.26;99754.55;1788817;79;20860;-71
2021/12/03 02:05:54;;;;;;;1.10;0.75;;;;;;;0.72;77.26;99755.80;1783408;80;21788;-71
2021/12/03 02:08:21;;;;;;;2.90;0.90;;;;;;;0.71;77.32;99754.95;1778418;78;20882;-71
2021/12/03 02:10:50;;;;;;;4.65;1.00;;;;;;;0.68;77.26;99761.70;1781521;79;21819;-71
2021/12/03 02:13:16;;;;;;;3.17;0.98;;;;;;;0.66;77.26;99759.98;1779868;78;20948;-71
2021/12/03 02:15:44;;;;;;;1.67;0.90;;;;;;;0.63;77.29;99758.69;1794309;78;21438;-71
2021/12/03 02:18:14;;;;;;;3.17;1.40;;;;;;;0.62;77.37;99758.67;1769644;79;20866;-71
2021/12/03 02:20:49;;;;;;;3.22;1.20;;;;;;;0.61;77.35;99761.62;1804714;79;20910;-72
2021/12/03 02:23:17;;;;;;;5.67;1.47;;;;;;;0.57;77.29;99758.62;1812607;79;20929;-71
2021/12/03 02:25:45;;;;;;;2.85;1.55;;;;;;;0.53;77.33;99761.97;1788216;80;20890;-71
2021/12/03 02:28:12;;;;;;;2.90;1.75;;;;;;;0.50;77.28;99768.33;1801971;78;20930;-71
2021/12/03 02:30:39;;;;;;;5.65;1.80;;;;;;;0.45;77.35;99766.56;1795643;78;21257;-71
2021/12/03 02:33:05;;;;;;;6.50;2.20;;;;;;;0.44;77.40;99776.30;1800544;79;20854;-71
2021/12/03 02:35:32;;;;;;;4.78;2.40;;;;;;;0.39;77.38;99769.04;1788274;78;20901;-71
2021/12/03 02:37:58;;;;;;;;;;;;;;;0.35;77.40;99770.69;1804407;79;20901;-71
2021/12/03 02:40:26;;;;;;;3.95;1.57;;;;;;;0.30;77.43;99771.05;1784181;79;20104;-71
2021/12/03 02:42:54;;;;;;;5.65;2.02;;;;;;;0.23;77.36;99768.00;1802049;78;20866;-72
2021/12/03 02:45:21;;;;;;;5.15;1.85;;;;;;;0.16;77.36;99774.70;1796641;78;20843;-72
2021/12/03 02:47:47;;;;;;;5.67;2.10;;;;;;;0.09;77.40;99781.81;1789779;78;20901;-71
2021/12/03 02:50:14;;;;;;;2.65;1.82;;;;;;;0.03;77.39;99779.61;1803777;78;20905;-71
2021/12/03 02:52:42;;;;;;;5.42;2.20;;;;;;;-0.03;77.43;99786.77;1792165;79;21379;-71
2021/12/03 02:55:09;;;;;;;4.72;2.20;;;;;;;-0.07;77.50;99797.31;1779125;80;20868;-72
2021/12/03 02:57:35;;;;;;;4.00;2.45;;;;;;;-0.09;77.53;99788.81;1805777;78;20881;-72
2021/12/03 03:00:04;;;;;;;;;;;;;;;-0.11;77.54;99794.70;1785952;79;20897;-72
2021/12/03 03:02:30;;;;;;;4.55;2.00;;;;;;;-0.15;77.67;99789.14;1777255;78;20100;-72
2021/12/03 03:04:58;;;;;;;3.22;1.90;;;;;;;-0.17;77.62;99784.45;1772222;79;20948;-71
2021/12/03 03:07:25;;;;;;;4.25;2.20;;;;;;;-0.20;77.62;99776.38;1781767;78;21379;-71
2021/12/03 03:09:51;;;;;;;5.05;2.67;;;;;;;-0.23;77.60;99785.64;1784966;79;20881;-71
2021/12/03 03:12:21;;;;;;;2.70;2.30;;;;;;;-0.27;77.60;99776.27;1785394;78;20893;-72
2021/12/03 03:14:55;;;;;;;5.22;2.08;;;;;;;-0.31;77.68;99777.91;1797115;78;20902;-72
2021/12/03 03:17:27;;;;;;;3.30;1.90;;;;;;;-0.32;77.68;99773.66;1808818;77;20894;-71
2021/12/03 03:19:55;;;;;;;4.10;2.30;;;;;;;-0.36;77.67;99773.18;1772120;80;21318;-71
2021/12/03 03:22:22;;;;;;;4.50;2.08;;;;;;;-0.41;77.60;99768.45;1826491;78;20838;-71
2021/12/03 03:24:51;;;;;;;8.15;2.00;;;;;;;-0.45;77.60;99765.42;1797385;78;21377;-71
2021/12/03 03:27:17;;;;;;;5.12;1.85;;;;;;;-0.51;77.65;99768.73;1812266;78;20922;-71
2021/12/03 03:29:44;;;;;;;4.87;1.90;;;;;;;-0.54;77.69;99772.52;1775621;80;20896;-71
2021/12/03 03:32:11;;;;;;;4.20;1.70;;;;;;;-0.59;77.73;99772.02;1797336;79;20944;-71
2021/12/03 03:34:38;;;;;;;3.72;1.70;;;;;;;-0.62;77.74;99775.36;1789969;80;20929;-71
2021/12/03 03:37:07;;;;;;;2.37;1.85;;;;;;;-0.64;77.80;99777.44;1806289;78;20913;-71
2021/12/03 03:39:33;;;;;;;3.75;1.92;;;;;;;-0.63;77.84;99785.49;1782983;78;20924;-71
2021/12/03 03:42:00;;;;;;;4.03;1.85;;;;;;;-0.65;77.81;99792.23;1801081;77;21560;-71
2021/12/03 03:44:28;;;;;;;3.75;2.00;;;;;;;-0.68;77.78;99791.35;1777770;80;21362;-71
2021/12/03 03:46:56;;;;;;;2.65;1.67;;;;;;;-0.70;77.78;99785.81;1799388;78;20843;-71
2021/12/03 03:49:25;;;;;;;4.42;1.80;;;;;;;-0.72;77.81;99788.73;1768262;80;20889;-71
2021/12/03 03:51:52;;;;;;;4.05;1.92;;;;;;;-0.76;77.77;99786.98;1771915;79;21386;-71
2021/12/03 03:54:19;;;;;;;11.15;2.12;;;;;;;-0.80;77.79;99780.14;1783033;79;20854;-71
2021/12/03 03:56:46;;;;;;;7.05;2.33;;;;;;;-0.85;77.78;99786.83;1787312;78;21422;-72
2021/12/03 03:59:17;;;;;;;7.70;2.37;;;;;;;-0.87;77.82;99785.53;1794494;78;21413;-71
2021/12/03 04:01:46;;;;;;;7.20;2.02;;;;;;;-0.91;77.77;99786.31;1791368;79;20942;-71
2021/12/03 04:04:13;;;;;;;4.35;1.77;;;;;;;-0.93;77.90;99783.31;1790124;79;21430;-71
2021/12/03 04:06:40;;;;;;;7.53;1.82;;;;;;;-0.95;77.90;99785.82;1789790;80;21378;-71
2021/12/03 04:09:07;;;;;;;8.98;2.40;;;;;;;-0.99;77.86;99785.33;1811124;78;20941;-71
2021/12/03 04:11:34;;;;;;;6.28;1.67;;;;;;;-1.02;77.83;99782.73;1820857;78;20885;-71
2021/12/03 04:14:00;;;;;;;6.00;2.12;;;;;;;-1.07;77.94;99776.34;1826634;78;21350;-71
2021/12/03 04:16:28;;;;;;;3.75;1.92;;;;;;;-1.08;77.91;99775.91;1834061;77;21530;-71
2021/12/03 04:19:00;;;;;;;2.87;1.45;;;;;;;-1.10;77.92;99777.98;1778936;80;20933;-72
2021/12/03 04:21:27;;;;;;;3.22;1.37;;;;;;;-1.12;77.93;99780.90;1784462;79;21398;-71
2021/12/03 04:23:54;;;;;;;3.77;1.62;;;;;;;-1.16;77.95;99779.98;1788254;80;21339;-71
2021/12/03 04:26:20;;;;;;;3.20;1.82;;;;;;;-1.17;77.94;99778.70;1797061;79;21816;-71
2021/12/03 04:28:47;;;;;;;7.20;1.47;;;;;;;-1.22;77.95;99774.81;1792173;78;21465;-71
2021/12/03 04:31:16;;;;;;;6.00;1.70;;;;;;;-1.23;77.94;99765.91;1789680;78;21316;-71
2021/12/03 04:33:43;;;;;;;5.87;1.85;;;;;;;-1.24;77.97;99766.73;1779273;79;20901;-71
2021/12/03 04:36:09;;;;;;;5.92;1.60;;;;;;;-1.25;77.97;99763.75;1797805;79;20889;-72
2021/12/03 04:38:35;;;;;;;4.55;1.82;;;;;;;-1.26;78.00;99760.78;1790085;78;21413;-72
2021/12/03 04:41:03;;;;;;;4.65;1.72;;;;;;;-1.28;77.95;99758.22;1762175;81;26927;-72
2021/12/03 04:43:31;;;;;;;3.27;1.57;;;;;;;-1.31;78.00;99760.70;1746626;82;21422;-72
2021/12/03 04:45:58;;;;;;;7.33;2.00;;;;;;;-1.33;77.96;99756.01;1767442;80;21825;-71
2021/12/03 04:48:24;;;;;;;4.47;1.70;;;;;;;-1.35;78.03;99746.25;1777148;80;21360;-71
2021/12/03 04:50:51;;;;;;;7.60;1.98;;;;;;;-1.36;78.03;99751.73;1775801;80;21481;-71
2021/12/03 04:53:19;;;;;;;3.27;1.60;;;;;;;-1.36;78.00;99749.62;1777317;80;21886;-71
2021/12/03 04:55:47;;;;;;;7.65;1.95;;;;;;;-1.39;77.98;99749.15;1773413;80;22090;-71
2021/12/03 04:58:14;;;;;;;7.70;1.82;;;;;;;-1.42;78.01;99741.48;1773301;80;21842;-71
2021/12/03 05:00:45;;;;;;;5.67;2.40;;;;;;;-1.42;78.05;99749.09;1774675;80;21373;-71
2021/12/03 05:03:11;;;;;;;6.60;2.20;;;;;;;-1.43;78.06;99743.99;1757357;80;21516;-72
2021/12/03 05:05:43;;;;;;;;;;;;;;;-1.44;78.04;99744.81;1732601;80;256236;-72
2021/12/03 05:08:08;;;;;;;4.92;1.80;;;;;;;-1.45;78.18;99741.43;1685960;84;20517;-72
2021/12/03 05:10:38;;;;;;;5.05;2.02;;;;;;;-1.46;78.12;99746.06;1648065;86;21451;-72
2021/12/03 05:13:08;;;;;;;8.30;2.40;;;;;;;-1.47;78.12;99741.81;1676499;84;20932;-72
2021/12/03 05:15:37;;;;;;;4.92;2.08;;;;;;;-1.48;78.12;99741.37;1670354;84;21401;-72
2021/12/03 05:18:05;;;;;;;6.30;2.10;;;;;;;-1.49;78.11;99743.88;1671665;84;20920;-72
2021/12/03 05:20:33;;;;;;;5.70;2.05;;;;;;;-1.49;78.13;99745.15;1675564;85;20952;-71
2021/12/03 05:23:00;;;;;;;4.12;1.98;;;;;;;-1.49;78.18;99749.80;1676103;85;20873;-72
2021/12/03 05:25:31;;;;;;;4.72;2.40;;;;;;;-1.49;78.14;99748.54;1645802;86;20894;-71
2021/12/03 05:27:57;;;;;;;4.60;1.98;;;;;;;-1.48;78.17;99755.31;1610732;86;21024;-71
2021/12/03 05:30:25;;;;;;;5.85;2.22;;;;;;;-1.48;78.18;99758.27;1620288;86;20988;-73
2021/12/03 05:32:52;;;;;;;2.42;1.87;;;;;;;-1.47;78.18;99752.37;1639392;86;20925;-71
2021/12/03 05:35:18;;;;;;;7.03;2.27;;;;;;;-1.47;78.21;99753.22;1629843;86;21450;-71
2021/12/03 05:37:45;;;;;;;4.90;2.17;;;;;;;-1.47;78.18;99757.02;1631385;85;21427;-71
2021/12/03 05:40:13;;;;;;;5.50;2.15;;;;;;;-1.47;78.20;99764.63;1649427;85;20901;-71
2021/12/03 05:42:39;;;;;;;4.58;1.95;;;;;;;-1.46;78.19;99766.34;1658902;84;20931;-71
2021/12/03 05:45:07;;;;;;;;;;;;;;;-1.46;78.21;99768.02;1664619;84;21089;-71
2021/12/03 05:47:34;;;;;;;4.40;2.08;;;;;;;-1.48;78.29;99762.06;1663955;85;20405;-71
2021/12/03 05:50:00;;;;;;;7.30;2.70;;;;;;;-1.48;78.22;99776.02;1662327;85;26638;-71
2021/12/03 05:52:26;;;;;;;8.80;2.27;;;;;;;-1.48;78.23;99773.06;1675644;85;28130;-71
2021/12/03 05:54:53;;;;;;;13.15;2.40;;;;;;;-1.47;78.24;99765.90;1682364;84;20960;-71
2021/12/03 05:57:19;;;;;;;8.90;2.00;;;;;;;-1.45;78.26;99772.27;1685914;84;20972;-71
2021/12/03 05:59:45;;;;;;;5.08;1.92;;;;;;;-1.43;78.24;99773.15;1677511;84;20877;-71
2021/12/03 06:02:12;;;;;;;5.97;2.02;;;;;;;-1.41;78.29;99778.69;1648837;86;20925;-72
2021/12/03 06:04:38;;;;;;;6.67;2.10;;;;;;;-1.38;78.27;99781.70;1662343;84;20953;-72
2021/12/03 06:07:05;;;;;;;;;;;;;;;-1.36;78.27;99785.97;1684331;85;20940;-72
2021/12/03 06:09:31;;;;;;;;;;;;;;;-1.35;78.32;99788.09;1688819;85;20094;-73
2021/12/03 06:11:59;;;;;;;3.10;1.70;;;;;;;-1.34;78.32;99787.27;1686530;84;20127;-72
2021/12/03 06:14:25;;;;;;;4.10;1.87;;;;;;;-1.33;78.23;99787.70;1686307;84;20939;-72
2021/12/03 06:16:51;;;;;;;5.05;2.00;;;;;;;-1.32;78.20;99794.91;1686421;84;20924;-72
2021/12/03 06:19:18;;;;;;;5.60;1.75;;;;;;;-1.31;78.27;99796.61;1679193;84;27051;-72
2021/12/03 06:21:44;;;;;;;4.65;1.57;;;;;;;-1.31;78.30;99796.61;1677577;84;21896;-72
2021/12/03 06:24:10;;;;;;;3.92;1.65;;;;;;;-1.31;78.24;99787.33;1679139;84;20924;-72
2021/12/03 06:26:37;;;;;;;8.43;1.90;;;;;;;-1.31;78.25;99785.20;1678899;84;20920;-72
2021/12/03 06:29:03;;;;;;;3.70;1.65;;;;;;;-1.30;78.28;99792.83;1678794;84;20925;-72
2021/12/03 06:31:30;;;;;;;5.12;1.62;;;;;;;-1.29;78.32;99799.62;1678945;85;27297;-73
2021/12/03 06:33:56;;;;;;;8.78;1.70;;;;;;;-1.28;78.32;99801.73;1656336;85;20952;-72
2021/12/03 06:36:22;;;;;;;2.12;1.22;;;;;;;-1.29;78.29;99807.23;1679054;84;20921;-72
2021/12/03 06:38:48;;;;;;;2.70;1.55;;;;;;;-1.27;78.31;99814.86;1678796;85;20956;-72
2021/12/03 06:41:15;;;;;;;9.05;2.17;;;;;;;-1.25;78.33;99818.28;1678963;85;20873;-72
2021/12/03 06:43:45;;;;;;;7.22;2.10;;;;;;;-1.25;78.30;99823.35;1677075;85;20952;-72
2021/12/03 06:46:11;;;;;;;7.10;2.12;;;;;;;-1.24;78.32;99822.53;1676662;85;20902;-72
2021/12/03 06:48:37;;;;;;;5.67;2.47;;;;;;;-1.24;78.32;99822.53;1663947;86;20913;-72
2021/12/03 06:51:04;;;;;;;3.27;2.05;;;;;;;-1.24;78.37;99820.84;1676612;85;26664;-73
2021/12/03 06:53:46;;;;;;;3.72;1.90;;;;;;;-1.22;78.34;99822.14;1677114;85;20893;-73
2021/12/03 06:56:19;;;;;;;6.05;2.35;;;;;;;-1.22;78.36;99814.53;1676817;85;20882;-72
2021/12/03 06:58:39;;;;;;;5.62;2.20;;;;;;;-1.23;78.35;99821.29;1675640;85;20886;-73
2021/12/03 07:01:05;;;;;;;6.83;2.20;;;;;;;-1.22;78.36;99826.80;1675259;84;20932;-73
2021/12/03 07:03:31;;;;;;;3.95;1.77;;;;;;;-1.22;78.39;99830.61;1676488;85;20907;-73
2021/12/03 07:05:57;;;;;;;7.70;2.40;;;;;;;-1.22;78.39;99836.95;1676919;84;21408;-73
2021/12/03 07:08:24;;;;;;;4.15;2.12;;;;;;;-1.21;78.43;99829.78;1676933;84;21532;-73
2021/12/03 07:10:50;;;;;;;4.42;2.20;;;;;;;-1.16;78.50;99833.67;1660922;85;20951;-73
2021/12/03 07:13:17;;;;;;;4.80;2.37;;;;;;;-1.15;78.48;99834.97;1661943;85;20878;-73
2021/12/03 07:15:44;;;;;;;7.03;2.55;;;;;;;-1.13;78.49;99841.34;1676844;85;20917;-73
2021/12/03 07:18:10;;;;;;;9.28;2.72;;;;;;;-1.12;78.47;99841.37;1676832;85;28113;-73
2021/12/03 07:20:36;;;;;;;10.50;2.75;;;;;;;-1.09;78.48;99838.89;1676582;85;23572;-73
2021/12/03 07:23:03;;;;;;;4.67;2.05;;;;;;;-1.05;78.55;99838.12;1632446;87;21002;-73
2021/12/03 07:25:29;;;;;;;6.85;2.33;;;;;;;-1.01;78.55;99837.31;1646140;87;20971;-73
2021/12/03 07:27:55;;;;;;;8.40;2.50;;;;;;;-0.96;78.65;99834.86;1665327;86;20883;-73
2021/12/03 07:30:22;;;;;;;4.87;2.22;;;;;;;-0.87;78.64;99839.23;1677080;84;20861;-73
2021/12/03 07:33:11;;;;;;;5.47;2.30;;;;;;;-0.80;78.60;99844.86;1673974;85;21318;-73
2021/12/03 07:35:44;;;;;;;5.80;3.45;;;;;;;-0.74;78.60;99852.17;1645621;86;20963;-72
2021/12/03 07:38:10;;;;;;;9.63;2.85;;;;;;;-0.70;78.63;99839.97;1677099;85;20965;-73
2021/12/03 07:40:37;;;;;;;8.10;2.47;;;;;;;-0.67;78.59;99852.72;1677192;85;21429;-72
2021/12/03 07:43:04;;;;;;;6.17;2.47;;;;;;;-0.64;78.56;99854.45;1671902;84;20965;-72
2021/12/03 07:45:30;;;;;;;3.27;2.33;;;;;;;-0.59;78.61;99859.19;1677737;85;20941;-73
2021/12/03 07:47:56;;;;;;;9.38;4.60;;;;;;;-0.54;78.70;99860.53;1678550;85;20945;-72
2021/12/03 07:50:22;;;;;;;5.80;2.67;;;;;;;-0.49;78.69;99858.89;1677611;85;21322;-73
2021/12/03 07:52:55;;;;;;;6.00;2.52;;;;;;;-0.43;78.73;99859.00;1672465;85;20980;-73
2021/12/03 07:55:21;;;;;;;8.93;2.62;;;;;;;-0.35;78.70;99866.32;1677107;85;26536;-73
2021/12/03 07:57:48;;;;;;;5.05;2.52;;;;;;;-0.31;78.67;99870.62;1673678;85;21211;-73
2021/12/03 08:00:16;;;;;;;8.68;3.47;;;;;;;-0.25;78.72;99868.59;1676288;84;21065;-73
2021/12/03 08:02:42;;;;;;;4.30;2.72;;;;;;;-0.20;78.73;99869.10;1676962;85;21120;-73
2021/12/03 08:05:09;;;;;;;6.08;3.17;;;;;;;-0.14;78.74;99866.66;1677714;85;21103;-73
2021/12/03 08:07:35;;;;;;;6.40;2.65;;;;;;;-0.07;78.77;99868.88;1674741;84;21149;-73
2021/12/03 08:10:03;;;;;;;6.37;2.90;;;;;;;-0.01;78.78;99876.59;1676937;85;21059;-73
2021/12/03 08:12:29;;;;;;;7.20;3.40;;;;;;;0.03;78.75;99878.31;1671288;85;21102;-73
2021/12/03 08:14:58;;;;;;;6.53;3.35;;;;;;;0.07;78.76;99888.95;1676958;84;21039;-73
2021/12/03 08:17:24;;;;;;;5.12;2.75;;;;;;;0.09;78.77;99887.30;1677267;84;21071;-73
2021/12/03 08:19:51;;;;;;;;;;;;;;;0.12;78.78;99886.48;1679200;85;21068;-73
2021/12/03 08:22:20;;;;;;;7.72;3.45;;;;;;;0.14;78.79;99881.00;1662891;85;20220;-73
2021/12/03 08:24:47;;;;;;;6.97;3.08;;;;;;;0.17;78.79;99881.05;1677071;84;21075;-73
2021/12/03 08:27:13;;;;;;;8.18;3.35;;;;;;;0.20;78.86;99884.48;1685361;84;21323;-73
2021/12/03 08:29:42;;;;;;;8.23;2.90;;;;;;;0.24;78.83;99884.97;1686766;84;21229;-73
2021/12/03 08:32:10;;;;;;;4.17;2.60;;;;;;;0.27;78.84;99880.34;1686972;84;26415;-73
2021/12/03 08:34:37;;;;;;;7.50;3.02;;;;;;;0.31;78.87;99884.22;1669867;84;20952;-73
2021/12/03 08:37:06;;;;;;;10.55;2.90;;;;;;;0.37;78.88;99873.70;1666581;84;20945;-73
2021/12/03 08:39:32;;;;;;;8.85;2.72;;;;;;;0.41;78.87;99873.75;1664399;85;20944;-73
2021/12/03 08:41:58;;;;;;;;;;;;;;;0.43;78.87;99870.81;1680401;85;21028;-73
2021/12/03 08:44:27;;;;;;;8.75;2.55;;;;;;;0.47;78.87;99876.38;1675212;85;20450;-73
2021/12/03 08:46:59;;;;;;;5.10;2.70;;;;;;;0.50;78.88;99870.48;1670297;85;21067;-73
2021/12/03 08:49:33;;;;;;;7.92;3.10;;;;;;;0.54;78.89;99878.13;1677617;85;20961;-73
2021/12/03 08:57:22;;;;;;;5.20;2.87;;;;;;;0.71;78.91;99894.02;1678652;85;20909;-73
2021/12/03 08:59:53;;;;;;;6.92;3.17;;;;;;;0.73;78.89;99899.98;1678531;85;20921;-73
2021/12/03 09:02:22;;;;;;;7.33;2.75;;;;;;;0.76;78.85;99906.38;1678571;84;20964;-73
2021/12/03 09:04:50;;;;;;;8.03;2.98;;;;;;;0.79;78.89;99909.81;1679055;85;20917;-73
2021/12/03 09:07:17;;;;;;;5.15;2.55;;;;;;;0.82;78.91;99911.13;1677294;84;21111;-73
2021/12/03 09:09:44;;;;;;;7.40;3.17;;;;;;;0.85;78.93;99907.77;1667966;84;21104;-73
2021/12/03 09:12:11;;;;;;;8.85;2.80;;;;;;;0.87;78.92;99914.58;1603569;87;21538;-73
2021/12/03 09:14:47;;;;;;;7.65;2.85;;;;;;;0.90;78.90;99917.16;1676553;84;20940;-73
2021/12/03 09:22:34;;;;;;;10.03;3.70;;;;;;;0.95;78.91;99913.41;1674149;84;20882;-73
2021/12/03 09:24:54;;;;;;;9.68;3.08;;;;;;;0.97;78.91;99922.77;1658914;84;21100;-73
2021/12/03 09:27:20;;;;;;;8.88;3.25;;;;;;;0.99;78.90;99922.36;1663332;84;21175;-73
2021/12/03 09:29:48;;;;;;;8.38;3.30;;;;;;;1.02;78.91;99922.81;1662792;84;20955;-73
2021/12/03 09:32:21;;;;;;;11.93;3.90;;;;;;;1.05;78.95;99921.55;1677095;84;20924;-73
2021/12/03 09:34:42;;;;;;;8.90;3.58;;;;;;;1.10;78.98;99919.05;1680729;83;20908;-73
2021/12/03 09:37:09;;;;;;;14.65;3.90;;;;;;;1.08;78.72;99891.45;1663863;84;21327;-73
2021/12/03 09:39:37;;;;;;;7.65;3.80;;;;;;;1.08;78.72;99891.45;1677742;84;20881;-73
2021/12/03 09:42:03;;;;;;;8.20;3.50;;;;;;;1.20;78.93;99896.25;1681026;84;21311;-73
2021/12/03 09:44:31;;;;;;;;;;;;;;;1.20;78.89;99905.16;1687542;83;20944;-73
2021/12/03 09:46:58;;;;;;;9.83;3.47;;;;;;;1.20;78.85;99905.16;1663319;84;20104;-73
2021/12/03 09:49:35;;;;;;;8.55;3.42;;;;;;;1.19;78.85;99908.55;1669581;84;20881;-73
2021/12/03 09:52:14;;;;;;;9.13;3.50;;;;;;;1.19;78.87;99907.27;1663048;84;20924;-73
2021/12/03 09:54:46;;;;;;;12.78;4.58;;;;;;;1.18;78.86;99905.98;1675023;84;21127;-73
2021/12/03 09:57:29;;;;;;;4.33;2.60;;;;;;;1.18;78.87;99899.20;1634506;87;20944;-73
2021/12/03 10:00:06;;;;;;;4.95;2.90;;;;;;;1.17;78.89;99902.59;1676080;85;20908;-73
2021/12/03 10:24:37;;;;;;;8.20;3.47;;;;;;;1.12;78.93;99920.77;1621974;87;20988;-73
2021/12/03 10:29:43;;;;;;;8.73;4.10;;;;;;;1.20;78.95;99929.77;1645657;85;21728;-73
2021/12/03 10:35:09;;;;;;;7.65;3.65;;;;;;;1.26;78.96;99929.84;1617970;87;21116;-73
2021/12/03 10:37:48;;;;;;;10.58;2.83;;;;;;;1.29;78.93;99927.33;1671863;83;21667;-73
2021/12/03 10:40:02;;;;;;;9.58;4.17;;;;;;;1.31;78.90;99932.02;1652063;84;21058;-73
2021/12/03 10:42:39;;;;;;;11.25;4.28;;;;;;;1.35;78.94;99938.84;1671350;85;21643;-73
2021/12/03 10:45:24;;;;;;;11.43;4.50;;;;;;;1.41;78.99;99933.81;1679843;83;20956;-74
2021/12/03 10:48:10;;;;;;;11.88;4.10;;;;;;;1.49;79.05;99932.20;1684687;84;22015;-73
2021/12/03 10:56:35;;;;;;;8.35;3.70;;;;;;;1.75;78.94;99923.91;1677091;84;21416;-74
2021/12/03 10:58:44;;;;;;;5.67;3.40;;;;;;;1.80;78.92;99926.93;1653779;84;21028;-73
2021/12/03 12:10:18;;;;;;;6.22;3.20;;;;;;;2.40;78.64;99932.44;1637786;87;20234;-74
2021/12/03 12:21:19;;;;;;;9.50;3.22;;;;;;;2.49;78.69;99939.72;1593260;87;21712;-73
2021/12/03 12:23:40;;;;;;;7.45;2.65;;;;;;;2.49;78.66;99951.20;1615199;87;21530;-74
2021/12/03 12:33:01;;;;;;;5.95;2.47;;;;;;;2.54;78.67;99952.09;1641404;85;21108;-74
2021/12/03 13:14:15;;;;;;;5.58;2.87;;;;;;;2.75;78.42;99960.67;1647705;87;21350;-74
2021/12/03 14:14:35;;;;;;;7.25;2.20;;;;;;;2.27;78.07;100004.20;1678602;84;21548;-70
2021/12/03 14:23:44;;;;;;;5.92;2.40;;;;;;;2.26;78.00;100009.72;1668825;84;21420;-73
2021/12/03 14:37:54;;;;;;;5.67;2.55;;;;;;;2.26;77.94;100013.97;1665267;84;21463;-73
2021/12/03 14:46:05;;;;;;;12.43;3.98;;;;;;;2.14;77.85;100014.72;1662808;84;21496;-73
2021/12/03 14:51:26;;;;;;;6.87;3.67;;;;;;;2.06;77.84;100020.21;1677310;83;20963;-73
2021/12/03 14:56:16;;;;;;;11.10;4.40;;;;;;;1.96;77.81;100018.00;1683147;83;20963;-73
2021/12/03 14:58:55;;;;;;;11.43;4.22;;;;;;;1.93;77.81;100023.48;1675334;83;20919;-73
2021/12/03 15:07:17;;;;;;;9.03;4.08;;;;;;;1.80;77.80;100042.91;1679172;83;26980;-73
2021/12/03 15:09:56;;;;;;;8.98;4.15;;;;;;;1.75;77.83;100040.73;1678825;83;21043;-73
2021/12/03 15:23:25;;;;;;;7.45;4.40;;;;;;;1.57;77.74;100060.91;1679979;83;21463;-73
2021/12/03 15:26:05;;;;;;;8.00;3.92;;;;;;;1.53;77.73;100057.50;1678593;84;20952;-73
2021/12/03 15:29:17;;;;;;;8.85;4.33;;;;;;;1.48;77.68;100058.29;1692052;83;20895;-73
2021/12/03 15:31:34;;;;;;;11.95;4.10;;;;;;;1.44;77.68;100054.84;1652314;85;21393;-73
2021/12/03 15:36:22;;;;;;;7.50;3.42;;;;;;;1.36;77.64;100056.45;1682071;84;20954;-73
2021/12/03 15:39:11;;;;;;;6.17;3.55;;;;;;;1.36;77.62;100060.27;1680037;84;21374;-73
2021/12/03 15:53:30;;;;;;;9.10;3.92;;;;;;;1.26;77.56;100062.27;1656529;85;20984;-73
2021/12/03 16:03:39;;;;;;;9.35;4.60;;;;;;;1.18;77.48;100063.85;1657589;85;21137;-73
2021/12/03 16:08:35;;;;;;;8.50;4.67;;;;;;;1.13;77.44;100061.66;1667066;85;21060;-73
2021/12/03 16:11:12;;;;;;;8.93;4.30;;;;;;;1.10;77.46;100061.63;1677542;84;21060;-73
2021/12/03 16:21:45;;;;;;;8.53;5.05;;;;;;;1.01;77.41;100083.17;1649140;85;21065;-73
2021/12/03 16:51:31;;;;;;;16.27;5.20;;;;;;;0.69;77.38;100089.91;1667254;84;20952;-73
2021/12/03 16:54:06;;;;;;;10.20;5.00;;;;;;;0.67;77.36;100092.84;1675273;84;20903;-73
2021/12/03 16:56:27;;;;;;;10.50;4.87;;;;;;;0.65;77.37;100091.97;1680384;84;20913;-73
2021/12/03 16:58:57;;;;;;;9.38;4.60;;;;;;;0.65;77.38;100090.69;1681695;84;20945;-73
2021/12/03 17:01:35;;;;;;;9.35;4.35;;;;;;;0.64;77.37;100091.11;1682261;85;20996;-73
2021/12/03 17:20:37;;;;;;;8.00;4.92;;;;;;;0.60;77.32;100085.95;1670225;85;20878;-72
2021/12/03 17:25:41;;;;;;;11.50;4.50;;;;;;;0.61;77.30;100092.75;1662798;85;21003;-72
2021/12/03 17:47:20;;;;;;;;;;;;;;;0.62;77.27;100093.19;1679038;84;20931;-72
2021/12/03 17:57:10;;;;;;;6.70;4.55;;;;;;;0.62;77.24;100090.64;1672276;84;20969;-72
2021/12/03 17:59:44;;;;;;;9.25;4.72;;;;;;;0.61;77.23;100088.94;1672222;84;20870;-72